Time;durP1;ratioP1;P1;durP2;ratioP2;P2;SDS_P1;SDS_P2;PMS_P1;PMS_P2;Temp;Humidity;BMP_temperature;BMP_pressure;BME280_temperature;BME280_humidity;BME280_pressure;Samples;Min_cycle;Max_cycle;Signal;HPM_P1;HPM_P2
2023/01/14 00:00:05;;;;;;;9.45;0.43;;;;;;;-146.25;96.09;52475.66;2096774;28;38407;-75
2023/01/14 00:01:17;;;;;;;7.35;0.50;;;;;;;-146.25;96.25;52495.94;2097148;28;42258;-75
2023/01/14 00:02:19;;;;;;;4.85;0.40;;;;;;;-146.25;96.56;52495.94;2097641;28;32893;-75
2023/01/14 00:03:20;;;;;;;9.90;0.50;;;;;;;-146.25;96.76;52471.59;2097756;28;20041;-74
2023/01/14 00:04:22;;;;;;;6.38;0.40;;;;;;;-146.25;96.76;52461.47;2096846;28;40741;-75
2023/01/14 00:05:24;;;;;;;5.65;0.40;;;;;;;-146.25;96.90;52483.78;2096136;28;37593;-75
2023/01/14 00:06:32;;;;;;;9.20;0.70;;;;;;;-146.25;97.03;52508.09;2096648;28;40208;-74
2023/01/14 00:07:36;;;;;;;8.15;0.45;;;;;;;-146.25;96.54;52469.56;2097280;28;40698;-74
2023/01/14 00:08:38;;;;;;;8.27;0.43;;;;;;;-146.25;96.63;52550.69;2097100;28;35495;-74
2023/01/14 00:09:42;;;;;;;7.45;0.50;;;;;;;-146.25;96.94;52483.78;2096838;28;37957;-75
2023/01/14 00:10:44;;;;;;;10.48;0.60;;;;;;;-146.25;96.45;52504.03;2097158;28;35718;-74
2023/01/14 00:11:46;;;;;;;8.63;0.50;;;;;;;-146.25;96.48;52479.72;2096804;28;37617;-75
2023/01/14 00:12:48;;;;;;;8.55;0.55;;;;;;;-146.25;96.53;52479.72;2096185;28;38728;-74
2023/01/14 00:13:49;;;;;;;9.52;0.65;;;;;;;-146.25;97.22;52506.06;2096719;28;40317;-73
2023/01/14 00:14:53;;;;;;;9.80;0.70;;;;;;;-146.25;96.85;52481.75;2097479;28;20033;-73
2023/01/14 00:15:57;;;;;;;8.20;0.70;;;;;;;-146.25;97.22;52435.09;2096787;28;39207;-73
2023/01/14 00:17:00;;;;;;;6.57;0.50;;;;;;;-146.25;97.02;52500.00;2097125;28;35613;-73
2023/01/14 00:18:02;;;;;;;8.45;0.55;;;;;;;-146.25;97.25;52465.53;2087440;28;37452;-73
2023/01/14 00:19:04;;;;;;;6.10;0.80;;;;;;;-146.25;97.32;52453.34;2088035;28;41739;-73
2023/01/14 00:20:07;;;;;;;7.68;0.63;;;;;;;-146.25;97.61;52506.06;2097166;28;41149;-74
2023/01/14 00:21:15;;;;;;;7.97;0.60;;;;;;;-146.25;97.70;52465.53;2096946;28;39191;-73
2023/01/14 00:22:17;;;;;;;8.02;0.68;;;;;;;-146.25;97.84;52479.72;2097154;28;39542;-74
2023/01/14 00:23:20;;;;;;;11.55;1.00;;;;;;;-146.25;97.29;52473.63;2097103;28;35227;-74
2023/01/14 00:24:22;;;;;;;5.38;0.60;;;;;;;-146.25;97.75;52473.63;2097840;28;20437;-74
2023/01/14 00:25:24;;;;;;;7.68;0.60;;;;;;;-146.25;97.17;52485.81;2096945;28;38589;-73
2023/01/14 00:26:26;;;;;;;6.95;0.80;;;;;;;-146.25;97.91;52495.94;2097954;28;20037;-74
2023/01/14 00:27:28;;;;;;;7.97;0.52;;;;;;;-146.25;97.66;52506.06;2087299;28;31478;-75
2023/01/14 00:28:30;;;;;;;9.32;0.68;;;;;;;-146.25;97.23;52493.91;2088573;28;20219;-74
2023/01/14 00:29:34;;;;;;;6.93;0.52;;;;;;;-146.25;97.65;52485.81;2097158;28;35685;-74
2023/01/14 00:30:36;;;;;;;8.80;0.40;;;;;;;-146.25;97.34;52520.28;2088301;28;27061;-73
2023/01/14 00:31:38;;;;;;;10.13;0.60;;;;;;;-146.25;97.42;52475.66;2088092;28;38049;-74
2023/01/14 00:32:40;;;;;;;6.18;0.30;;;;;;;-146.25;96.99;52471.59;2096229;28;30173;-74
2023/01/14 00:33:43;;;;;;;8.10;0.60;;;;;;;-146.25;97.02;52473.63;2097167;28;37230;-74
2023/01/14 00:34:45;;;;;;;7.72;0.57;;;;;;;-146.25;96.75;52447.28;2088462;28;20053;-74
2023/01/14 00:35:53;;;;;;;8.50;0.40;;;;;;;-146.25;96.47;52463.50;2088199;28;38615;-74
2023/01/14 00:36:56;;;;;;;6.68;0.50;;;;;;;-146.25;96.93;52483.78;2097330;28;20122;-74
2023/01/14 00:37:58;;;;;;;11.50;0.68;;;;;;;-146.25;96.38;52485.81;2096600;28;22663;-75
2023/01/14 00:38:59;;;;;;;9.13;0.60;;;;;;;-146.25;96.78;52497.97;2096997;28;31257;-74
2023/01/14 00:40:01;;;;;;;7.30;0.70;;;;;;;-146.25;96.58;52445.25;2097080;28;29940;-75
2023/01/14 00:41:04;;;;;;;8.98;0.50;;;;;;;-146.25;96.47;52489.84;2096979;28;34367;-74
2023/01/14 00:42:07;;;;;;;10.40;0.63;;;;;;;-146.25;96.45;52485.81;2087832;28;38413;-74
2023/01/14 00:43:10;;;;;;;11.50;1.38;;;;;;;-146.25;96.18;52469.56;2087140;28;20033;-75
2023/01/14 00:44:13;;;;;;;8.07;0.80;;;;;;;-146.25;96.46;52463.50;2089094;28;24322;-74
2023/01/14 00:45:15;;;;;;;8.73;0.63;;;;;;;-146.25;96.66;52455.38;2088360;28;35149;-75
2023/01/14 00:46:21;;;;;;;8.95;0.82;;;;;;;-146.25;96.56;52471.59;2088754;28;35680;-74
2023/01/14 00:47:23;;;;;;;9.15;0.82;;;;;;;-146.25;96.50;52477.69;2080395;28;20814;-75
2023/01/14 00:48:26;;;;;;;8.60;0.60;;;;;;;-146.25;96.36;52510.13;2087282;28;20195;-74
2023/01/14 00:49:28;;;;;;;7.90;0.40;;;;;;;-146.25;96.49;52491.88;2088511;28;34531;-75
2023/01/14 00:50:30;;;;;;;9.27;0.68;;;;;;;-146.25;96.00;52530.41;2089222;28;20131;-74
2023/01/14 00:51:32;;;;;;;6.70;0.50;;;;;;;-146.25;95.74;52485.81;2088151;28;34420;-74
2023/01/14 00:52:34;;;;;;;4.18;0.40;;;;;;;-146.25;95.69;52479.72;2089058;28;20045;-74
2023/01/14 00:53:37;;;;;;;7.53;0.50;;;;;;;-146.25;95.77;52502.03;2093976;28;38170;-75
2023/01/14 00:54:39;;;;;;;6.22;0.60;;;;;;;-146.25;96.01;52510.13;2096660;28;35973;-74
2023/01/14 00:55:41;;;;;;;5.28;0.68;;;;;;;-146.25;95.70;52457.41;2087660;28;26783;-74
2023/01/14 00:56:43;;;;;;;8.40;0.65;;;;;;;-146.25;95.36;52485.81;2087972;28;34552;-74
2023/01/14 00:57:44;;;;;;;7.57;0.55;;;;;;;-146.25;95.43;52485.81;2097273;28;20037;-74
2023/01/14 00:58:49;;;;;;;8.02;0.80;;;;;;;-146.25;95.67;52473.63;2096499;28;20894;-73
2023/01/14 00:59:53;;;;;;;9.45;0.70;;;;;;;-146.25;95.64;52469.56;2097248;28;20825;-74
2023/01/14 01:00:55;;;;;;;6.57;0.40;;;;;;;-146.25;96.02;52502.03;2096697;28;32377;-74
2023/01/14 01:01:57;;;;;;;10.77;0.70;;;;;;;-146.25;95.75;52467.56;2097285;28;20053;-74
2023/01/14 01:02:59;;;;;;;8.45;0.63;;;;;;;-146.25;95.84;52493.91;2097296;28;20828;-74
2023/01/14 01:04:02;;;;;;;11.05;0.70;;;;;;;-146.25;95.98;52502.03;2087501;28;34961;-74
2023/01/14 01:05:07;;;;;;;8.55;0.60;;;;;;;-146.25;95.99;52497.97;2079803;28;36006;-75
2023/01/14 01:06:10;;;;;;;6.85;0.60;;;;;;;-146.25;95.80;52481.75;2072259;28;32930;-75
2023/01/14 01:07:12;;;;;;;6.43;0.40;;;;;;;-146.25;96.07;52485.81;2080420;28;20136;-75
2023/01/14 01:08:17;;;;;;;7.10;0.75;;;;;;;-146.25;95.97;52479.72;2080147;28;32565;-75
2023/01/14 01:09:21;;;;;;;11.55;0.95;;;;;;;-146.25;95.98;52481.75;2072464;28;20043;-75
2023/01/14 01:10:22;;;;;;;10.75;0.70;;;;;;;-146.25;95.37;52465.53;2072686;28;24879;-75
2023/01/14 01:11:25;;;;;;;6.97;0.70;;;;;;;-146.25;95.87;52500.00;2089398;28;20048;-75
2023/01/14 01:12:27;;;;;;;7.82;0.60;;;;;;;-146.25;95.77;52510.13;2087788;28;21615;-75
2023/01/14 01:13:29;;;;;;;9.88;0.70;;;;;;;-146.25;96.07;52516.22;2079772;28;28140;-75
2023/01/14 01:14:31;;;;;;;11.55;0.95;;;;;;;-146.25;95.77;52487.81;2087853;28;33323;-75
2023/01/14 01:15:37;;;;;;;9.82;0.70;;;;;;;-146.25;96.31;52475.66;2087747;28;31197;-75
2023/01/14 01:16:40;;;;;;;9.98;0.60;;;;;;;-146.25;96.30;52493.91;2088557;28;35884;-75
2023/01/14 01:17:42;;;;;;;10.85;0.80;;;;;;;-146.25;96.22;52495.94;2096735;28;33924;-75
2023/01/14 01:18:44;;;;;;;11.82;0.90;;;;;;;-146.25;96.47;52437.13;2095752;28;31444;-75
2023/01/14 01:19:46;;;;;;;8.23;0.63;;;;;;;-146.25;96.56;52500.00;2087578;28;35461;-75
2023/01/14 01:20:48;;;;;;;10.95;1.05;;;;;;;-146.25;96.07;52502.03;2079446;28;37306;-75
2023/01/14 01:21:50;;;;;;;11.77;1.00;;;;;;;-146.25;96.51;52487.81;2088137;28;20038;-75
2023/01/14 01:22:56;;;;;;;10.13;0.85;;;;;;;-146.25;96.35;52514.19;2087317;28;20045;-75
2023/01/14 01:23:58;;;;;;;12.48;1.23;;;;;;;-146.25;96.34;52506.06;2088505;28;25128;-75
2023/01/14 01:25:00;;;;;;;14.82;0.73;;;;;;;-146.25;96.49;52489.84;2095922;28;29054;-75
2023/01/14 01:26:05;;;;;;;11.65;0.80;;;;;;;-146.25;95.82;52481.75;2096713;28;31303;-75
2023/01/14 01:27:06;;;;;;;9.23;0.80;;;;;;;-146.25;96.61;52465.53;2096658;28;20702;-76
2023/01/14 01:28:10;;;;;;;10.45;1.17;;;;;;;-146.25;96.54;52512.16;2096642;28;20072;-75
2023/01/14 01:29:12;;;;;;;10.90;0.85;;;;;;;-146.25;96.07;52481.75;2096449;28;37103;-75
2023/01/14 01:30:17;;;;;;;11.52;1.02;;;;;;;-146.25;96.63;52469.56;2096741;28;34258;-75
2023/01/14 01:31:21;;;;;;;7.35;0.63;;;;;;;-146.25;96.78;52481.75;2096824;28;33168;-73
2023/01/14 01:32:24;;;;;;;10.18;0.82;;;;;;;-146.25;96.58;52473.63;2088230;28;20866;-72
2023/01/14 01:33:26;;;;;;;13.77;0.90;;;;;;;-146.25;97.14;52502.03;2086920;28;32350;-71
2023/01/14 01:34:29;;;;;;;14.00;1.40;;;;;;;-146.25;97.05;52449.31;2096380;28;28597;-70
2023/01/14 01:35:31;;;;;;;12.25;0.95;;;;;;;-146.25;97.39;52491.88;2087155;28;38017;-70
2023/01/14 01:36:33;;;;;;;8.80;0.85;;;;;;;-146.25;97.45;52518.25;2087704;28;37054;-70
2023/01/14 01:37:38;;;;;;;5.18;0.40;;;;;;;-146.25;97.35;52534.47;2096883;28;20052;-71
2023/01/14 01:38:42;;;;;;;7.93;0.40;;;;;;;-146.25;97.30;52473.63;2087122;28;20038;-71
2023/01/14 01:39:45;;;;;;;8.40;0.40;;;;;;;-146.25;97.43;52500.00;2079666;28;26865;-72
2023/01/14 01:40:46;;;;;;;5.55;0.55;;;;;;;-146.25;97.46;52500.00;2079353;28;34011;-73
2023/01/14 01:41:48;;;;;;;4.95;0.40;;;;;;;-146.25;97.89;52481.75;2079370;28;36001;-73
2023/01/14 01:42:55;;;;;;;4.88;0.30;;;;;;;-146.25;97.42;52489.84;2079612;28;20092;-73
2023/01/14 01:44:27;;;;;;;5.05;0.40;;;;;;;-146.25;98.24;52481.75;2072105;28;27705;-73
2023/01/14 01:45:41;;;;;;;7.72;0.75;;;;;;;-146.25;98.09;52502.03;2083882;28;36235;-73
2023/01/14 01:46:46;;;;;;;7.65;0.50;;;;;;;-146.25;98.09;52473.63;2079764;28;21053;-73
2023/01/14 01:47:53;;;;;;;6.28;0.75;;;;;;;-146.25;98.69;52526.34;2080200;28;31965;-73
2023/01/14 01:49:05;;;;;;;5.55;0.60;;;;;;;-146.25;98.68;52506.06;2087459;28;36173;-73
2023/01/14 01:50:09;;;;;;;4.93;0.30;;;;;;;-146.25;98.53;52477.69;2071631;28;20038;-73
2023/01/14 01:51:20;;;;;;;8.15;0.40;;;;;;;-146.25;98.58;52479.72;2072626;28;40691;-72
2023/01/14 01:52:29;;;;;;;8.20;0.40;;;;;;;-146.25;99.21;52497.97;2088298;28;31140;-73
2023/01/14 01:53:33;;;;;;;12.73;0.80;;;;;;;-146.25;99.46;52463.50;2086939;28;27476;-73
2023/01/14 01:54:50;;;;;;;9.13;0.77;;;;;;;-146.25;98.96;52504.03;2079723;28;20046;-73
2023/01/14 01:55:56;;;;;;;7.03;0.50;;;;;;;-146.25;99.68;52514.19;2079949;28;33472;-73
2023/01/14 01:56:59;;;;;;;8.23;1.00;;;;;;;-146.25;99.42;52514.19;2072212;28;20038;-73
2023/01/14 01:58:02;;;;;;;8.00;0.70;;;;;;;-146.25;99.72;52451.31;2071904;28;20047;-73
2023/01/14 01:59:10;;;;;;;9.88;0.85;;;;;;;-146.25;99.73;52489.84;2078564;28;37875;-74
2023/01/14 02:00:12;;;;;;;10.98;1.23;;;;;;;-146.25;100.00;52451.31;2079305;28;39694;-73
2023/01/14 02:01:18;;;;;;;8.65;0.98;;;;;;;-146.25;99.49;52493.91;2080516;28;20444;-73
2023/01/14 02:02:24;;;;;;;8.25;1.08;;;;;;;-146.25;100.00;52514.19;2086830;28;41376;-74
2023/01/14 02:03:36;;;;;;;7.07;1.00;;;;;;;-146.25;100.00;52485.81;2087839;28;20041;-73
2023/01/14 02:04:38;;;;;;;11.27;1.10;;;;;;;-146.25;100.00;52465.53;2088041;28;20796;-73
2023/01/14 02:05:40;;;;;;;11.90;1.20;;;;;;;-146.25;100.00;52500.00;2079048;28;36061;-73
2023/01/14 02:06:42;;;;;;;14.20;1.30;;;;;;;-146.25;100.00;52520.28;2079704;28;20057;-73
2023/01/14 02:07:44;;;;;;;5.88;0.73;;;;;;;-146.25;100.00;52485.81;2079971;28;33362;-73
2023/01/14 02:08:54;;;;;;;10.35;1.00;;;;;;;-146.25;100.00;52453.34;2078721;28;37380;-73
2023/01/14 02:10:01;;;;;;;11.98;0.88;;;;;;;-146.25;100.00;52449.31;2072732;28;20046;-73
2023/01/14 02:11:31;;;;;;;9.32;1.00;;;;;;;-146.25;100.00;52497.97;2080402;28;20045;-74
2023/01/14 02:13:09;;;;;;;14.27;1.33;;;;;;;-146.25;100.00;52469.56;2079470;28;20084;-73
2023/01/14 02:14:51;;;;;;;13.05;1.23;;;;;;;-146.25;100.00;52489.84;2089312;28;20881;-74
2023/01/14 02:16:14;;;;;;;11.82;1.30;;;;;;;-146.25;100.00;52518.25;2079172;28;32384;-74
2023/01/14 02:17:30;;;;;;;10.70;1.25;;;;;;;-146.25;100.00;52475.66;2081587;28;20069;-74
2023/01/14 02:18:54;;;;;;;10.32;1.40;;;;;;;-146.25;100.00;52485.81;2073727;28;20053;-74
2023/01/14 02:20:26;;;;;;;15.45;1.48;;;;;;;-146.25;100.00;52520.28;2087659;28;20107;-74
2023/01/14 02:21:33;;;;;;;13.05;1.35;;;;;;;-146.25;100.00;52459.44;2087833;28;20038;-74
2023/01/14 02:23:18;;;;;;;18.15;1.70;;;;;;;-146.25;100.00;52510.13;2072379;28;20122;-74
2023/01/14 02:25:08;;;;;;;10.25;1.13;;;;;;;-146.25;100.00;52495.94;2093171;28;20041;-74
2023/01/14 02:26:31;;;;;;;;;;;;;;;-146.25;100.00;52502.03;2088157;28;20029;-74
2023/01/14 02:27:42;;;;;;;17.73;1.38;;;;;;;-146.25;100.00;52422.94;2087755;28;20813;-74
2023/01/14 02:29:32;;;;;;;17.67;1.75;;;;;;;-146.25;100.00;52489.84;2081220;28;20058;-74
2023/01/14 02:31:01;;;;;;;10.02;1.25;;;;;;;-146.25;100.00;52522.28;2069125;28;20038;-73
2023/01/14 02:32:30;;;;;;;13.82;1.70;;;;;;;-146.25;100.00;52461.47;2082170;28;21011;-74
2023/01/14 02:33:46;;;;;;;16.80;1.42;;;;;;;-146.25;100.00;52495.94;2092198;28;20882;-74
2023/01/14 02:35:25;;;;;;;14.45;1.50;;;;;;;-146.25;100.00;52491.88;2095780;28;20087;-74
2023/01/14 02:36:42;;;;;;;13.68;1.48;;;;;;;-146.25;100.00;52510.13;2079050;28;25750;-74
2023/01/14 02:38:34;;;;;;;15.35;2.25;;;;;;;-146.25;100.00;52424.97;2081325;28;22237;-74
2023/01/14 02:39:58;;;;;;;13.52;1.23;;;;;;;-146.25;100.00;52477.69;2062747;28;20125;-74
2023/01/14 02:44:06;;;;;;;16.15;1.55;;;;;;;-146.25;100.00;52457.41;2082483;28;20053;-74
2023/01/14 02:44:19;;;;;;;17.48;1.35;;;;;;;-146.25;100.00;52479.72;2094728;28;20054;-74
2023/01/14 02:45:37;;;;;;;13.93;1.25;;;;;;;-146.25;100.00;52493.91;2079125;28;20038;-74
2023/01/14 02:46:49;;;;;;;15.45;1.60;;;;;;;-146.25;100.00;52469.56;2085377;28;20046;-74
2023/01/14 02:47:55;;;;;;;16.25;1.45;;;;;;;-146.25;100.00;52500.00;2096263;28;22788;-73
2023/01/14 02:49:02;;;;;;;11.95;1.55;;;;;;;-146.25;100.00;52481.75;2078979;28;20049;-74
2023/01/14 02:50:06;;;;;;;11.38;1.67;;;;;;;-146.25;100.00;52491.88;2080054;28;20042;-74
2023/01/14 02:51:09;;;;;;;17.88;1.48;;;;;;;-146.25;100.00;52447.28;2080136;28;20046;-74
2023/01/14 02:52:11;;;;;;;15.20;1.27;;;;;;;-146.25;100.00;52497.97;2078970;28;20044;-74
2023/01/14 02:53:18;;;;;;;19.63;1.85;;;;;;;-146.25;100.00;52500.00;2079974;28;20049;-74
2023/01/14 02:54:20;;;;;;;18.95;1.98;;;;;;;-146.25;100.00;52473.63;2086904;28;20985;-74
2023/01/14 02:55:56;;;;;;;11.55;1.52;;;;;;;-146.25;100.00;52469.56;2086937;28;32475;-74
2023/01/14 02:57:47;;;;;;;16.02;2.33;;;;;;;-146.25;100.00;52467.56;2078925;28;20152;-74
2023/01/14 02:59:27;;;;;;;17.88;1.40;;;;;;;-146.25;100.00;52481.75;2074787;28;20088;-75
2023/01/14 03:01:00;;;;;;;12.35;1.45;;;;;;;-146.25;100.00;52500.00;2080681;28;20061;-74
2023/01/14 03:02:15;;;;;;;17.15;1.58;;;;;;;-146.25;100.00;52453.34;2096520;28;20032;-74
2023/01/14 03:03:52;;;;;;;18.65;1.65;;;;;;;-146.25;100.00;52481.75;2087918;28;20042;-74
2023/01/14 03:05:24;;;;;;;13.88;1.25;;;;;;;-146.25;100.00;52491.88;2085617;28;20037;-74
2023/01/14 03:06:44;;;;;;;14.02;1.60;;;;;;;-146.25;100.00;52465.53;2083958;28;20045;-74
2023/01/14 03:08:23;;;;;;;14.52;1.40;;;;;;;-146.25;100.00;52502.03;2083687;28;20411;-74
2023/01/14 03:09:39;;;;;;;13.00;1.20;;;;;;;-146.25;100.00;52489.84;2079132;28;20038;-75
2023/01/14 03:10:49;;;;;;;15.73;1.55;;;;;;;-146.25;100.00;52493.91;2076657;28;35086;-74
2023/01/14 03:12:17;;;;;;;12.48;1.58;;;;;;;-146.25;99.98;52473.63;2080663;28;20078;-74
2023/01/14 03:13:47;;;;;;;9.52;1.10;;;;;;;-146.25;100.00;52495.94;2071357;28;20046;-74
2023/01/14 03:15:22;;;;;;;11.68;1.38;;;;;;;-146.25;100.00;52483.78;2093717;28;20053;-74
2023/01/14 03:16:41;;;;;;;15.40;1.15;;;;;;;-146.25;100.00;52459.44;2055804;28;20133;-74
2023/01/14 03:17:52;;;;;;;15.40;1.27;;;;;;;-146.25;100.00;52477.69;2083184;28;20042;-73
2023/01/14 03:19:09;;;;;;;13.32;1.63;;;;;;;-146.25;99.98;52500.00;2081626;28;37232;-74
2023/01/14 03:20:29;;;;;;;;;;;;;;;-146.25;99.71;52483.78;2075004;28;20825;-74
2023/01/14 03:21:37;;;;;;;13.68;1.40;;;;;;;-146.25;99.67;52489.84;2087137;28;19921;-74
2023/01/14 03:22:41;;;;;;;12.75;1.00;;;;;;;-146.25;99.72;52512.16;2080890;28;22126;-75
2023/01/14 03:23:58;;;;;;;15.18;1.00;;;;;;;-146.25;99.62;52483.78;2082558;28;20045;-74
2023/01/14 03:25:03;;;;;;;13.50;1.58;;;;;;;-146.25;99.54;52495.94;2095316;28;20030;-75
2023/01/14 03:26:09;;;;;;;17.60;1.60;;;;;;;-146.25;99.96;52491.88;2080362;28;20185;-74
2023/01/14 03:27:23;;;;;;;17.60;1.70;;;;;;;-146.25;99.68;52493.91;2074428;28;21036;-74
2023/01/14 03:28:42;;;;;;;13.23;1.63;;;;;;;-146.25;99.54;52461.47;2066841;28;20051;-75
2023/01/14 03:29:54;;;;;;;17.42;1.42;;;;;;;-146.25;99.63;52497.97;2078056;28;21052;-75
2023/01/14 03:31:06;;;;;;;15.85;2.08;;;;;;;-146.25;99.37;52481.75;2081728;28;20049;-75
2023/01/14 03:32:55;;;;;;;11.80;1.05;;;;;;;-146.25;99.43;52491.88;2074790;28;20047;-74
2023/01/14 03:34:05;;;;;;;13.20;1.42;;;;;;;-146.25;99.59;52491.88;2075693;28;20045;-75
2023/01/14 03:35:15;;;;;;;14.65;1.52;;;;;;;-146.25;99.39;52502.03;2072702;28;20113;-75
2023/01/14 03:36:22;;;;;;;15.82;1.75;;;;;;;-146.25;99.92;52463.50;2076299;28;20168;-74
2023/01/14 03:37:27;;;;;;;14.30;1.42;;;;;;;-146.25;100.00;52477.69;2080934;28;20057;-75
2023/01/14 03:38:38;;;;;;;18.30;1.95;;;;;;;-146.25;99.96;52512.16;2080197;28;41888;-75
2023/01/14 03:39:44;;;;;;;19.80;2.00;;;;;;;-146.25;100.00;52471.59;2084366;28;34801;-75
2023/01/14 03:40:50;;;;;;;18.33;1.88;;;;;;;-146.25;99.42;52510.13;2079917;28;38325;-75
2023/01/14 03:42:17;;;;;;;11.35;1.30;;;;;;;-146.25;99.55;52451.31;2080735;28;40940;-75
2023/01/14 03:43:44;;;;;;;16.98;1.52;;;;;;;-146.25;99.61;52473.63;2080181;28;37466;-75
2023/01/14 03:45:14;;;;;;;20.63;2.13;;;;;;;-146.25;99.62;52489.84;2085813;28;40194;-75
2023/01/14 03:46:17;;;;;;;14.18;1.23;;;;;;;-146.25;100.00;52481.75;2088549;28;38196;-75
2023/01/14 03:47:21;;;;;;;18.77;1.52;;;;;;;-146.25;99.99;52522.28;2088648;28;39367;-75
2023/01/14 03:48:24;;;;;;;15.93;1.48;;;;;;;-146.25;99.71;52502.03;2088214;28;40704;-75
2023/01/14 03:49:26;;;;;;;16.83;1.88;;;;;;;-146.25;99.49;52500.00;2088780;28;42422;-74
2023/01/14 03:50:58;;;;;;;12.48;1.45;;;;;;;-146.25;99.51;52491.88;2088629;28;33880;-75
2023/01/14 03:52:11;;;;;;;12.93;1.25;;;;;;;-146.25;99.72;52459.44;2088102;28;41570;-75
2023/01/14 03:53:39;;;;;;;9.27;1.33;;;;;;;-146.25;99.53;52497.97;2091805;28;39753;-74
2023/01/14 03:54:52;;;;;;;13.02;1.15;;;;;;;-146.25;99.31;52502.03;2088205;28;29488;-74
2023/01/14 03:56:22;;;;;;;12.63;1.25;;;;;;;-146.25;99.21;52475.66;2082485;28;21409;-75
2023/01/14 03:57:56;;;;;;;17.23;1.67;;;;;;;-146.25;99.24;52479.72;2093662;28;42972;-75
2023/01/14 03:59:10;;;;;;;17.90;1.65;;;;;;;-146.25;99.23;52485.81;2096788;28;44226;-75
2023/01/14 04:00:25;;;;;;;16.63;1.58;;;;;;;-146.25;99.16;52491.88;2088227;28;40592;-75
2023/01/14 04:01:44;;;;;;;12.18;1.58;;;;;;;-146.25;99.08;52497.97;2083292;28;20076;-75
2023/01/14 04:02:46;;;;;;;20.63;1.85;;;;;;;-146.25;98.78;52510.13;2092218;28;42949;-75
2023/01/14 04:03:49;;;;;;;15.75;1.60;;;;;;;-146.25;98.96;52493.91;2087303;28;37534;-74
2023/01/14 04:04:52;;;;;;;17.67;1.70;;;;;;;-146.25;98.93;52502.03;2079708;28;40702;-75
2023/01/14 04:05:55;;;;;;;17.95;1.77;;;;;;;-146.25;98.89;52489.84;2080218;28;39968;-75
2023/01/14 04:06:57;;;;;;;14.73;1.35;;;;;;;-146.25;98.97;52500.00;2088311;28;38458;-74
2023/01/14 04:08:00;;;;;;;19.30;1.83;;;;;;;-146.25;98.99;52453.34;2088222;28;38018;-74
2023/01/14 04:09:04;;;;;;;18.33;2.30;;;;;;;-146.25;99.38;52481.75;2088057;28;40271;-74
2023/01/14 04:10:07;;;;;;;17.02;1.70;;;;;;;-146.25;99.16;52516.22;2087080;28;38801;-75
2023/01/14 04:11:10;;;;;;;17.17;1.52;;;;;;;-146.25;99.33;52429.03;2088923;28;38272;-75
2023/01/14 04:12:11;;;;;;;13.43;1.15;;;;;;;-146.25;99.32;52491.88;2088911;28;38197;-75
2023/01/14 04:15:57;;;;;;;13.88;1.30;;;;;;;-146.25;99.16;52493.91;2089306;28;21204;-75
2023/01/14 04:16:59;;;;;;;19.95;1.75;;;;;;;-146.25;98.80;52489.84;2093118;28;39639;-76
2023/01/14 04:18:02;;;;;;;14.43;1.77;;;;;;;-146.25;98.71;52495.94;2096637;28;36036;-75
2023/01/14 04:19:03;;;;;;;20.48;1.60;;;;;;;-146.25;98.94;52475.66;2097168;28;36559;-75
2023/01/14 04:20:06;;;;;;;14.75;1.40;;;;;;;-146.25;98.91;52526.34;2096980;28;37342;-75
2023/01/14 04:21:08;;;;;;;19.48;1.40;;;;;;;-146.25;98.58;52469.56;2088817;28;20050;-75
2023/01/14 04:22:12;;;;;;;11.75;1.30;;;;;;;-146.25;98.77;52497.97;2087248;28;39230;-75
2023/01/14 04:23:14;;;;;;;18.13;1.30;;;;;;;-146.25;98.53;52544.59;2096849;28;39946;-75
2023/01/14 04:24:15;;;;;;;17.63;1.40;;;;;;;-146.25;98.89;52489.84;2096685;28;37423;-75
2023/01/14 04:25:19;;;;;;;16.05;1.70;;;;;;;-146.25;98.45;52497.97;2096743;28;40063;-75
2023/01/14 04:26:21;;;;;;;16.95;1.55;;;;;;;-146.25;98.55;52504.03;2097162;28;22142;-74
2023/01/14 04:27:23;;;;;;;16.10;1.75;;;;;;;-146.25;98.70;52485.81;2096865;28;43150;-75
2023/01/14 04:28:27;;;;;;;18.50;1.63;;;;;;;-146.25;98.78;52475.66;2097048;28;33478;-76
2023/01/14 04:29:29;;;;;;;14.50;1.10;;;;;;;-146.25;98.57;52530.41;2096735;28;40515;-75
2023/01/14 04:30:31;;;;;;;16.23;1.58;;;;;;;-146.25;97.95;52502.03;2096680;28;37089;-75
2023/01/14 04:31:32;;;;;;;11.70;1.33;;;;;;;-146.25;97.89;52487.81;2096676;28;35938;-75
2023/01/14 04:32:34;;;;;;;11.90;1.33;;;;;;;-146.25;97.91;52502.03;2095818;28;39201;-75
2023/01/14 04:33:36;;;;;;;10.55;1.25;;;;;;;-146.25;98.10;52502.03;2097230;28;36427;-76
2023/01/14 04:34:37;;;;;;;12.57;1.25;;;;;;;-146.25;97.89;52502.03;2097431;28;20045;-75
2023/01/14 04:35:39;;;;;;;16.80;1.48;;;;;;;-146.25;97.37;52500.00;2097374;28;39071;-75
2023/01/14 04:36:41;;;;;;;11.98;1.10;;;;;;;-146.25;97.25;52485.81;2097121;28;33231;-75
2023/01/14 04:37:43;;;;;;;13.88;1.70;;;;;;;-146.25;97.13;52469.56;2096872;28;40352;-75
2023/01/14 04:38:44;;;;;;;23.65;1.80;;;;;;;-146.25;97.20;52483.78;2097111;28;32216;-75
2023/01/14 04:39:46;;;;;;;9.70;0.98;;;;;;;-146.25;97.30;52497.97;2097236;28;28696;-75
2023/01/14 04:40:56;;;;;;;10.90;1.27;;;;;;;-146.25;97.07;52481.75;2095955;28;41808;-76
2023/01/14 04:43:18;;;;;;;16.88;1.17;;;;;;;-146.25;96.87;52485.81;2096792;28;39905;-75
2023/01/14 04:44:20;;;;;;;17.55;1.23;;;;;;;-146.25;96.58;52514.19;2097026;28;36374;-75
2023/01/14 04:45:21;;;;;;;12.48;1.17;;;;;;;-146.25;96.80;52481.75;2096319;28;36278;-75
2023/01/14 04:46:23;;;;;;;13.23;1.10;;;;;;;-146.25;96.33;52473.63;2097568;28;39661;-76
2023/01/14 04:47:25;;;;;;;16.73;1.30;;;;;;;-146.25;96.14;52475.66;2087799;28;36360;-76
2023/01/14 04:48:27;;;;;;;14.48;0.98;;;;;;;-146.25;96.01;52469.56;2088405;28;39746;-76
2023/01/14 04:49:29;;;;;;;11.70;0.80;;;;;;;-146.25;95.25;52461.47;2095767;28;35132;-76
2023/01/14 04:50:30;;;;;;;10.20;1.75;;;;;;;-146.25;95.82;52455.38;2096872;28;40954;-75
2023/01/14 04:51:35;;;;;;;9.55;1.58;;;;;;;-146.25;95.92;52479.72;2096409;28;36180;-76
2023/01/14 04:52:36;;;;;;;9.63;1.00;;;;;;;-146.25;95.37;52461.47;2096681;28;37057;-75
2023/01/14 04:53:38;;;;;;;16.00;1.30;;;;;;;-146.25;95.93;52449.31;2096549;28;39260;-75
2023/01/14 04:54:40;;;;;;;10.63;1.40;;;;;;;-146.25;95.29;52469.56;2096940;28;38056;-76
2023/01/14 04:55:45;;;;;;;12.60;1.33;;;;;;;-146.25;95.73;52475.66;2096517;28;35900;-76
2023/01/14 04:56:47;;;;;;;10.35;1.05;;;;;;;-146.25;95.58;52489.84;2088136;28;38687;-75
2023/01/14 04:57:48;;;;;;;13.23;1.23;;;;;;;-146.25;95.36;52487.81;2088692;28;38819;-75
2023/01/14 04:58:50;;;;;;;10.55;1.08;;;;;;;-146.25;95.06;52475.66;2096752;28;24019;-76
2023/01/14 04:59:51;;;;;;;9.90;1.20;;;;;;;-146.25;94.77;52483.78;2096778;28;27207;-76
2023/01/14 05:00:55;;;;;;;17.35;1.75;;;;;;;-146.25;94.76;52465.53;2097698;28;20056;-75
2023/01/14 05:01:57;;;;;;;11.15;1.10;;;;;;;-146.25;95.22;52491.88;2095972;28;38874;-75
2023/01/14 05:03:03;;;;;;;14.90;1.60;;;;;;;-146.25;94.54;52471.59;2096769;28;41208;-76
2023/01/14 05:04:05;;;;;;;15.45;1.25;;;;;;;-146.25;94.74;52481.75;2096704;28;40254;-76
2023/01/14 05:05:07;;;;;;;13.85;1.02;;;;;;;-146.25;94.64;52508.09;2096212;28;38772;-75
2023/01/14 05:06:11;;;;;;;12.18;1.70;;;;;;;-146.25;95.19;52514.19;2087769;28;25827;-75
2023/01/14 05:07:15;;;;;;;13.43;1.15;;;;;;;-146.25;94.75;52475.66;2088003;28;37982;-76
2023/01/14 05:08:19;;;;;;;14.32;1.13;;;;;;;-146.25;94.92;52465.53;2097371;28;20838;-76
2023/01/14 05:09:23;;;;;;;15.63;1.17;;;;;;;-146.25;95.34;52514.19;2079419;28;37822;-76
2023/01/14 05:10:26;;;;;;;17.20;1.25;;;;;;;-146.25;94.70;52518.25;2079685;28;38523;-76
2023/01/14 05:11:28;;;;;;;16.08;1.48;;;;;;;-146.25;94.93;52485.81;2096625;28;36143;-76
2023/01/14 05:12:29;;;;;;;16.67;1.45;;;;;;;-146.25;95.36;52481.75;2088286;28;20796;-76
2023/01/14 05:13:31;;;;;;;15.55;1.65;;;;;;;-146.25;95.28;52487.81;2087759;28;41445;-76
2023/01/14 05:14:37;;;;;;;17.23;1.50;;;;;;;-146.25;95.38;52510.13;2097053;28;20052;-76
2023/01/14 05:15:42;;;;;;;12.88;1.10;;;;;;;-146.25;95.13;52506.06;2096260;28;38382;-76
2023/01/14 05:16:46;;;;;;;20.70;1.52;;;;;;;-146.25;95.31;52481.75;2096467;28;37777;-76
2023/01/14 05:17:48;;;;;;;16.88;1.50;;;;;;;-146.25;95.78;52497.97;2096433;28;42572;-76